Pagina principale
METAR-TAF:

METAR-TAF

Aeroporti :

Aeroporto di Portorose

Portorose, Slovenia

latitudine: 45-31N, longitudine: 013-34E, altezza: 95 m

Osservazione

Il bollettino è stato emesso 29 minuti fa, alle 19:00 UTC
Vento 2 kt da direzioni variabili
Temperature 20°C
Umidità 49%
Pressione 1018 hPa
Visibilità 10 km o più
nessuna nube inferiore a 1500 m e nessun cumulonembo

METAR: LJPZ 231900Z VRB02KT CAVOK 20/09 Q1018

Ora: 21:29 (19:29 UTC)

Previsione

Il bollettino è stato emesso 2 ore e 29 minuti fa, alle 17:00 UTC
Previsione valida dal 23 alle 18 UTC al 24 alle 03 UTC
Vento 5 kt da ovest/nord-ovest
Visibilità 10 km o più
nessuna nube inferiore a 1500 m e nessun cumulonembo
Evoluzione graduale
dal 23 alle 18 UTC al 23 alle 20 UTC
Vento 5 kt da est/sud-est

TAF: LJPZ 231700Z 2318/2403 30005KT CAVOK BECMG 2318/2320 12005KT

Osservazioni e previsioni meteorologiche di più di 4000 aeroporti (messaggi METAR e TAF).

Le stazioni disponibili sono rappresentate dai dischi gialli e rossi sulla carta.

Puntare il mouse per vedere il nome della stazione.

Clicca sopra per visualizzare le osservazioni e previsioni meteorologiche.

Per cambiare la mappa : fare clic sui pulsanti verdi con una croce nera per ingrandire, il pulsante verde con un trattino per diminuire, o sulla freccia verde per le mappe adiacenti.


METAR-TAF: